York, New York
Current Conditions -  °F | °C
As of 7:54 AM on Monday 20 Oct 2014 (Local Time) from KROC Reporting Station
Broken Clouds Broken Clouds  
Wind Chill: 38°   Ceiling: 15000
Heat Index: 42°   Visibility: 10mi
Dew Point: 34°   Wind: 6mph
Humidity: 73%   Direction: 210°SSW
Pressure: 29.95"   Gusts: NA
Location:  42.87°N, 77.89°W
Report Text: KROC 201154Z 21005KT 10SM FEW030 SCT090 BKN150 BKN200 06/01 A2995 RMK AO2 SLP149 T00560011 10067 20028 56013
Loading
Personal Weather Stations






























Interactive Weather Map New forecast layout! Learn more

10-Day Weather Forecast

Advertisements
Track Severe Weather on mobile